sensor_id;sensor_type;location;lat;lon;timestamp;pressure;altitude;pressure_sealevel;temperature;humidity
21803;BME280;18591;47.080;22.214;2022-12-07T00:02:01;99598.03;;;7.72;62.80
21803;BME280;18591;47.080;22.214;2022-12-07T00:04:05;99589.25;;;7.67;62.87
21803;BME280;18591;47.080;22.214;2022-12-07T00:06:09;99597.13;;;7.73;62.51
21803;BME280;18591;47.080;22.214;2022-12-07T00:08:12;99600.91;;;7.64;62.94
21803;BME280;18591;47.080;22.214;2022-12-07T00:10:14;99594.41;;;7.75;62.12
21803;BME280;18591;47.080;22.214;2022-12-07T00:12:16;99594.41;;;7.75;62.00
21803;BME280;18591;47.080;22.214;2022-12-07T00:14:18;99599.66;;;7.78;62.18
21803;BME280;18591;47.080;22.214;2022-12-07T00:16:26;99590.97;;;7.70;61.57
21803;BME280;18591;47.080;22.214;2022-12-07T00:18:28;99590.88;;;7.73;61.72
21803;BME280;18591;47.080;22.214;2022-12-07T00:20:30;99591.84;;;7.70;61.43
21803;BME280;18591;47.080;22.214;2022-12-07T00:22:32;99588.28;;;7.71;61.36
21803;BME280;18591;47.080;22.214;2022-12-07T00:24:35;99593.72;;;7.67;61.33
21803;BME280;18591;47.080;22.214;2022-12-07T00:26:38;99586.56;;;7.67;61.29
21803;BME280;18591;47.080;22.214;2022-12-07T00:28:45;99590.38;;;7.58;60.62
21803;BME280;18591;47.080;22.214;2022-12-07T00:30:47;99588.56;;;7.59;60.74
21803;BME280;18591;47.080;22.214;2022-12-07T00:32:49;99590.28;;;7.63;60.73
21803;BME280;18591;47.080;22.214;2022-12-07T00:34:52;99591.34;;;7.56;60.63
21803;BME280;18591;47.080;22.214;2022-12-07T00:36:54;99593.28;;;7.49;61.00
21803;BME280;18591;47.080;22.214;2022-12-07T00:38:59;99596.06;;;7.45;60.51
21803;BME280;18591;47.080;22.214;2022-12-07T00:41:04;99590.66;;;7.48;60.41
21803;BME280;18591;47.080;22.214;2022-12-07T00:43:06;99593.47;;;7.41;60.30
21803;BME280;18591;47.080;22.214;2022-12-07T00:45:08;99598.84;;;7.40;60.32
21803;BME280;18591;47.080;22.214;2022-12-07T00:47:13;99586.38;;;7.39;60.50
21803;BME280;18591;47.080;22.214;2022-12-07T00:49:15;99590.13;;;7.32;60.37
21803;BME280;18591;47.080;22.214;2022-12-07T00:51:18;99597.50;;;7.22;60.69
21803;BME280;18591;47.080;22.214;2022-12-07T00:53:20;99592.22;;;7.19;60.95
21803;BME280;18591;47.080;22.214;2022-12-07T00:55:22;99596.56;;;7.23;60.72
21803;BME280;18591;47.080;22.214;2022-12-07T00:57:24;99594.84;;;7.22;60.94
21803;BME280;18591;47.080;22.214;2022-12-07T00:59:26;99602.91;;;7.19;60.63
21803;BME280;18591;47.080;22.214;2022-12-07T01:01:31;99594.94;;;7.17;60.36
21803;BME280;18591;47.080;22.214;2022-12-07T01:03:34;99596.72;;;7.17;60.26
21803;BME280;18591;47.080;22.214;2022-12-07T01:05:37;99588.84;;;7.11;60.01
21803;BME280;18591;47.080;22.214;2022-12-07T01:07:39;99593.41;;;7.06;59.97
21803;BME280;18591;47.080;22.214;2022-12-07T01:09:41;99574.97;;;6.95;60.77
21803;BME280;18591;47.080;22.214;2022-12-07T01:11:43;99575.75;;;6.98;60.66
21803;BME280;18591;47.080;22.214;2022-12-07T01:13:45;99567.81;;;6.97;60.41
21803;BME280;18591;47.080;22.214;2022-12-07T01:15:47;99565.06;;;6.98;60.46
21803;BME280;18591;47.080;22.214;2022-12-07T01:17:50;99571.38;;;6.96;60.49
21803;BME280;18591;47.080;22.214;2022-12-07T01:19:52;99570.66;;;6.89;60.16
21803;BME280;18591;47.080;22.214;2022-12-07T01:21:54;99570.56;;;6.92;60.24
21803;BME280;18591;47.080;22.214;2022-12-07T01:23:57;99567.03;;;6.92;60.09
21803;BME280;18591;47.080;22.214;2022-12-07T01:26:02;99563.59;;;6.87;59.57
21803;BME280;18591;47.080;22.214;2022-12-07T01:28:05;99565.31;;;6.88;60.06
21803;BME280;18591;47.080;22.214;2022-12-07T01:30:07;99568.22;;;6.79;59.97
21803;BME280;18591;47.080;22.214;2022-12-07T01:32:10;99569.88;;;6.84;60.01
21803;BME280;18591;47.080;22.214;2022-12-07T01:34:12;99567.19;;;6.84;59.84
21803;BME280;18591;47.080;22.214;2022-12-07T01:38:24;99563.94;;;6.71;60.38
21803;BME280;18591;47.080;22.214;2022-12-07T01:40:26;99558.59;;;6.70;59.70
21803;BME280;18591;47.080;22.214;2022-12-07T01:42:28;99558.69;;;6.67;59.41
21803;BME280;18591;47.080;22.214;2022-12-07T01:47:14;99546.19;;;6.69;60.41
21803;BME280;18591;47.080;22.214;2022-12-07T01:49:21;99537.22;;;6.71;60.13
21803;BME280;18591;47.080;22.214;2022-12-07T01:51:25;99543.53;;;6.67;60.07
21803;BME280;18591;47.080;22.214;2022-12-07T01:53:29;99540.09;;;6.62;60.17
21803;BME280;18591;47.080;22.214;2022-12-07T01:55:33;99544.56;;;6.60;60.52
21803;BME280;18591;47.080;22.214;2022-12-07T01:57:49;99548.25;;;6.56;60.75
21803;BME280;18591;47.080;22.214;2022-12-07T01:59:53;99542.81;;;6.61;60.65
21803;BME280;18591;47.080;22.214;2022-12-07T02:01:57;99546.31;;;6.63;60.68
21803;BME280;18591;47.080;22.214;2022-12-07T02:03:59;99536.66;;;6.57;60.57
21803;BME280;18591;47.080;22.214;2022-12-07T02:06:01;99543.78;;;6.57;60.69
21803;BME280;18591;47.080;22.214;2022-12-07T02:08:04;99536.78;;;6.51;60.64
21803;BME280;18591;47.080;22.214;2022-12-07T02:10:21;99544.81;;;6.49;60.47
21803;BME280;18591;47.080;22.214;2022-12-07T02:12:24;99544.78;;;6.52;60.43
21803;BME280;18591;47.080;22.214;2022-12-07T02:14:27;99546.59;;;6.50;60.16
21803;BME280;18591;47.080;22.214;2022-12-07T02:16:51;99545.84;;;6.44;59.83
21803;BME280;18591;47.080;22.214;2022-12-07T02:28:31;99544.25;;;6.35;59.70
21803;BME280;18591;47.080;22.214;2022-12-07T02:30:40;99547.94;;;6.28;59.86
21803;BME280;18591;47.080;22.214;2022-12-07T02:33:06;99556.75;;;6.31;60.26
21803;BME280;18591;47.080;22.214;2022-12-07T02:35:19;99556.81;;;6.28;59.88
21803;BME280;18591;47.080;22.214;2022-12-07T02:39:57;99547.31;;;6.17;60.39
21803;BME280;18591;47.080;22.214;2022-12-07T02:42:09;99547.22;;;6.20;59.85
21803;BME280;18591;47.080;22.214;2022-12-07T02:44:20;99551.66;;;6.21;60.08
21803;BME280;18591;47.080;22.214;2022-12-07T02:46:27;99551.66;;;6.21;59.71
21803;BME280;18591;47.080;22.214;2022-12-07T02:48:33;99551.81;;;6.13;60.06
21803;BME280;18591;47.080;22.214;2022-12-07T02:50:35;99551.00;;;6.09;60.14
21803;BME280;18591;47.080;22.214;2022-12-07T02:52:37;99549.19;;;6.12;60.19
21803;BME280;18591;47.080;22.214;2022-12-07T02:54:39;99543.78;;;6.15;60.33
21803;BME280;18591;47.080;22.214;2022-12-07T03:01:19;99542.06;;;6.10;60.74
21803;BME280;18591;47.080;22.214;2022-12-07T03:03:29;99540.13;;;6.19;60.75
21803;BME280;18591;47.080;22.214;2022-12-07T03:15:07;99521.75;;;6.05;60.25
21803;BME280;18591;47.080;22.214;2022-12-07T03:17:19;99526.13;;;6.09;60.96
21803;BME280;18591;47.080;22.214;2022-12-07T03:19:24;99525.19;;;6.12;60.93
21803;BME280;18591;47.080;22.214;2022-12-07T03:21:34;99519.16;;;6.00;60.85
21803;BME280;18591;47.080;22.214;2022-12-07T03:23:40;99523.50;;;6.06;60.85
21803;BME280;18591;47.080;22.214;2022-12-07T03:25:48;99514.59;;;6.07;60.50
21803;BME280;18591;47.080;22.214;2022-12-07T03:28:01;99519.94;;;6.05;60.52
21803;BME280;18591;47.080;22.214;2022-12-07T03:30:10;99513.75;;;6.03;60.73
21803;BME280;18591;47.080;22.214;2022-12-07T03:32:25;99510.16;;;6.06;60.80
21803;BME280;18591;47.080;22.214;2022-12-07T03:34:43;99509.44;;;5.98;60.91
21803;BME280;18591;47.080;22.214;2022-12-07T03:36:54;99513.81;;;6.00;61.20
21803;BME280;18591;47.080;22.214;2022-12-07T03:51:25;99513.13;;;5.89;61.44
21803;BME280;18591;47.080;22.214;2022-12-07T03:53:45;99507.75;;;5.94;61.34
21803;BME280;18591;47.080;22.214;2022-12-07T03:55:49;99513.91;;;5.97;61.35
21803;BME280;18591;47.080;22.214;2022-12-07T03:57:56;99514.84;;;5.95;61.20
21803;BME280;18591;47.080;22.214;2022-12-07T04:00:00;99510.19;;;6.04;61.00
21803;BME280;18591;47.080;22.214;2022-12-07T04:02:13;99505.75;;;6.05;61.21
21803;BME280;18591;47.080;22.214;2022-12-07T04:04:17;99507.53;;;6.04;61.14
21803;BME280;18591;47.080;22.214;2022-12-07T04:06:19;99506.66;;;6.04;61.36
21803;BME280;18591;47.080;22.214;2022-12-07T04:08:21;99513.03;;;5.97;61.47
21803;BME280;18591;47.080;22.214;2022-12-07T04:10:23;99514.81;;;5.96;61.87
21803;BME280;18591;47.080;22.214;2022-12-07T04:12:25;99512.00;;;6.04;61.58
21803;BME280;18591;47.080;22.214;2022-12-07T04:14:27;99511.94;;;6.05;61.76
21803;BME280;18591;47.080;22.214;2022-12-07T04:16:29;99515.47;;;6.07;61.69
21803;BME280;18591;47.080;22.214;2022-12-07T04:18:31;99511.00;;;6.08;61.96
21803;BME280;18591;47.080;22.214;2022-12-07T04:20:33;99519.78;;;6.13;61.62
21803;BME280;18591;47.080;22.214;2022-12-07T04:22:35;99511.72;;;6.16;61.94
21803;BME280;18591;47.080;22.214;2022-12-07T04:24:38;99515.25;;;6.18;61.88
21803;BME280;18591;47.080;22.214;2022-12-07T04:26:42;99505.59;;;6.11;62.09
21803;BME280;18591;47.080;22.214;2022-12-07T04:28:45;99518.91;;;6.13;62.04
21803;BME280;18591;47.080;22.214;2022-12-07T04:30:47;99512.63;;;6.15;62.18
21803;BME280;18591;47.080;22.214;2022-12-07T04:32:49;99502.69;;;6.23;61.97
21803;BME280;18591;47.080;22.214;2022-12-07T04:34:51;99503.59;;;6.22;62.19
21803;BME280;18591;47.080;22.214;2022-12-07T04:36:56;99505.44;;;6.19;61.92
21803;BME280;18591;47.080;22.214;2022-12-07T04:38:59;99498.28;;;6.22;62.45
21803;BME280;18591;47.080;22.214;2022-12-07T04:41:05;99504.47;;;6.23;62.57
21803;BME280;18591;47.080;22.214;2022-12-07T04:43:07;99502.63;;;6.26;62.52
21803;BME280;18591;47.080;22.214;2022-12-07T04:45:10;99502.63;;;6.26;62.33
21803;BME280;18591;47.080;22.214;2022-12-07T04:47:12;99506.19;;;6.27;62.23
21803;BME280;18591;47.080;22.214;2022-12-07T04:49:14;99505.19;;;6.31;62.47
21803;BME280;18591;47.080;22.214;2022-12-07T04:51:20;99499.84;;;6.31;62.72
21803;BME280;18591;47.080;22.214;2022-12-07T04:53:23;99506.75;;;6.41;62.40
21803;BME280;18591;47.080;22.214;2022-12-07T04:55:25;99508.63;;;6.38;62.09
21803;BME280;18591;47.080;22.214;2022-12-07T04:57:27;99505.97;;;6.36;62.30
21803;BME280;18591;47.080;22.214;2022-12-07T04:59:28;99514.84;;;6.37;62.59
21803;BME280;18591;47.080;22.214;2022-12-07T05:05:40;99505.16;;;6.32;62.85
21803;BME280;18591;47.080;22.214;2022-12-07T05:07:43;99512.16;;;6.38;62.68
21803;BME280;18591;47.080;22.214;2022-12-07T05:09:45;99512.13;;;6.40;62.25
21803;BME280;18591;47.080;22.214;2022-12-07T05:11:47;99506.97;;;6.30;63.04
21803;BME280;18591;47.080;22.214;2022-12-07T05:13:49;99512.94;;;6.43;62.66
21803;BME280;18591;47.080;22.214;2022-12-07T05:15:51;99512.19;;;6.37;63.05
21803;BME280;18591;47.080;22.214;2022-12-07T05:17:54;99512.19;;;6.37;62.67
21803;BME280;18591;47.080;22.214;2022-12-07T05:20:30;99513.19;;;6.32;63.65
21803;BME280;18591;47.080;22.214;2022-12-07T05:22:32;99513.88;;;6.41;63.44
21803;BME280;18591;47.080;22.214;2022-12-07T05:24:34;99513.81;;;6.44;63.04
21803;BME280;18591;47.080;22.214;2022-12-07T05:26:37;99515.50;;;6.48;62.77
21803;BME280;18591;47.080;22.214;2022-12-07T05:28:39;99516.25;;;6.54;62.71
21803;BME280;18591;47.080;22.214;2022-12-07T05:30:41;99518.09;;;6.51;62.55
21803;BME280;18591;47.080;22.214;2022-12-07T05:32:43;99515.50;;;6.48;62.53
21803;BME280;18591;47.080;22.214;2022-12-07T05:34:45;99519.84;;;6.53;62.72
21803;BME280;18591;47.080;22.214;2022-12-07T05:36:47;99518.91;;;6.54;62.83
21803;BME280;18591;47.080;22.214;2022-12-07T05:38:53;99518.13;;;6.49;62.75
21803;BME280;18591;47.080;22.214;2022-12-07T05:41:00;99512.78;;;6.49;63.13
21803;BME280;18591;47.080;22.214;2022-12-07T05:43:02;99523.47;;;6.49;63.18
21803;BME280;18591;47.080;22.214;2022-12-07T05:45:06;99513.69;;;6.50;63.47
21803;BME280;18591;47.080;22.214;2022-12-07T05:47:09;99520.72;;;6.54;63.46
21803;BME280;18591;47.080;22.214;2022-12-07T05:49:11;99516.13;;;6.59;63.18
21803;BME280;18591;47.080;22.214;2022-12-07T05:51:13;99510.78;;;6.61;62.98
21803;BME280;18591;47.080;22.214;2022-12-07T05:53:16;99520.53;;;6.62;62.96
21803;BME280;18591;47.080;22.214;2022-12-07T05:55:24;99510.78;;;6.61;63.38
21803;BME280;18591;47.080;22.214;2022-12-07T05:57:28;99510.56;;;6.70;63.01
21803;BME280;18591;47.080;22.214;2022-12-07T05:59:30;99515.00;;;6.71;62.72
21803;BME280;18591;47.080;22.214;2022-12-07T06:01:32;99516.94;;;6.63;62.86
21803;BME280;18591;47.080;22.214;2022-12-07T06:03:35;99519.59;;;6.64;63.38
21803;BME280;18591;47.080;22.214;2022-12-07T06:05:37;99513.28;;;6.68;63.17
21803;BME280;18591;47.080;22.214;2022-12-07T06:07:39;99514.16;;;6.67;63.25
21803;BME280;18591;47.080;22.214;2022-12-07T06:09:42;99512.50;;;6.63;63.03
21803;BME280;18591;47.080;22.214;2022-12-07T06:11:44;99516.13;;;6.61;63.10
21803;BME280;18591;47.080;22.214;2022-12-07T06:14:05;99520.53;;;6.62;63.22
21803;BME280;18591;47.080;22.214;2022-12-07T06:16:07;99525.63;;;6.72;62.77
21803;BME280;18591;47.080;22.214;2022-12-07T06:18:10;99514.00;;;6.75;62.96
21803;BME280;18591;47.080;22.214;2022-12-07T06:20:12;99526.38;;;6.79;62.69
21803;BME280;18591;47.080;22.214;2022-12-07T06:22:15;99518.28;;;6.82;62.78
21803;BME280;18591;47.080;22.214;2022-12-07T06:24:18;99519.31;;;6.76;62.65
21803;BME280;18591;47.080;22.214;2022-12-07T06:26:20;99525.53;;;6.77;62.65
21803;BME280;18591;47.080;22.214;2022-12-07T06:28:22;99514.16;;;6.67;62.88
21803;BME280;18591;47.080;22.214;2022-12-07T06:30:25;99515.81;;;6.73;62.86
21803;BME280;18591;47.080;22.214;2022-12-07T06:32:27;99519.41;;;6.72;62.51
21803;BME280;18591;47.080;22.214;2022-12-07T06:34:30;99517.84;;;6.63;62.61
21803;BME280;18591;47.080;22.214;2022-12-07T06:36:32;99513.41;;;6.62;62.79
21803;BME280;18591;47.080;22.214;2022-12-07T06:38:35;99516.13;;;6.61;62.70
21803;BME280;18591;47.080;22.214;2022-12-07T06:40:37;99516.84;;;6.67;62.69
21803;BME280;18591;47.080;22.214;2022-12-07T06:42:40;99512.28;;;6.72;62.69
21803;BME280;18591;47.080;22.214;2022-12-07T06:44:45;99515.78;;;6.74;62.63
21803;BME280;18591;47.080;22.214;2022-12-07T06:46:48;99512.34;;;6.69;62.67
21803;BME280;18591;47.080;22.214;2022-12-07T06:48:56;99506.03;;;6.73;62.70
21803;BME280;18591;47.080;22.214;2022-12-07T06:50:58;99517.00;;;6.61;62.92
21803;BME280;18591;47.080;22.214;2022-12-07T06:53:02;99511.50;;;6.67;63.15
21803;BME280;18591;47.080;22.214;2022-12-07T06:55:05;99514.94;;;6.74;62.83
21803;BME280;18591;47.080;22.214;2022-12-07T06:57:07;99510.44;;;6.74;63.38
21803;BME280;18591;47.080;22.214;2022-12-07T06:59:10;99512.03;;;6.83;63.44
21803;BME280;18591;47.080;22.214;2022-12-07T07:01:14;99509.22;;;6.89;62.83
21803;BME280;18591;47.080;22.214;2022-12-07T07:03:17;99519.84;;;6.91;63.11
21803;BME280;18591;47.080;22.214;2022-12-07T07:05:19;99511.72;;;6.97;63.21
21803;BME280;18591;47.080;22.214;2022-12-07T07:07:23;99503.59;;;7.02;63.07
21803;BME280;18591;47.080;22.214;2022-12-07T07:09:25;99509.66;;;7.08;63.08
21803;BME280;18591;47.080;22.214;2022-12-07T07:11:28;99506.72;;;7.19;63.26
21803;BME280;18591;47.080;22.214;2022-12-07T07:17:29;99512.31;;;7.44;62.53
21803;BME280;18591;47.080;22.214;2022-12-07T07:19:31;99510.09;;;7.60;62.71
21803;BME280;18591;47.080;22.214;2022-12-07T07:21:33;99506.38;;;7.67;62.21
21803;BME280;18591;47.080;22.214;2022-12-07T07:23:35;99510.00;;;7.64;62.29
21803;BME280;18591;47.080;22.214;2022-12-07T07:25:37;99504.44;;;7.72;62.13
21803;BME280;18591;47.080;22.214;2022-12-07T07:27:40;99503.09;;;7.89;61.99
21803;BME280;18591;47.080;22.214;2022-12-07T07:29:42;99511.63;;;8.03;61.84
21803;BME280;18591;47.080;22.214;2022-12-07T07:31:44;99510.47;;;8.12;61.97
21803;BME280;18591;47.080;22.214;2022-12-07T07:33:47;99510.22;;;8.21;61.73
21803;BME280;18591;47.080;22.214;2022-12-07T07:35:49;99510.09;;;8.25;61.73
21803;BME280;18591;47.080;22.214;2022-12-07T07:37:51;99503.78;;;8.28;61.57
21803;BME280;18591;47.080;22.214;2022-12-07T07:39:53;99510.72;;;8.34;61.47
21803;BME280;18591;47.080;22.214;2022-12-07T07:41:55;99504.38;;;8.38;61.44
21803;BME280;18591;47.080;22.214;2022-12-07T07:44:01;99509.56;;;8.44;61.29
21803;BME280;18591;47.080;22.214;2022-12-07T07:46:03;99505.06;;;8.46;61.21
21803;BME280;18591;47.080;22.214;2022-12-07T07:48:08;99504.13;;;8.47;61.62
21803;BME280;18591;47.080;22.214;2022-12-07T07:50:11;99504.00;;;8.52;61.25
21803;BME280;18591;47.080;22.214;2022-12-07T07:52:13;99506.47;;;8.58;60.96
21803;BME280;18591;47.080;22.214;2022-12-07T07:54:15;99496.47;;;8.64;61.43
21803;BME280;18591;47.080;22.214;2022-12-07T07:56:18;99498.91;;;8.72;61.13
21803;BME280;18591;47.080;22.214;2022-12-07T07:58:20;99505.25;;;8.68;61.00
21803;BME280;18591;47.080;22.214;2022-12-07T08:00:23;99512.16;;;8.77;60.97
21803;BME280;18591;47.080;22.214;2022-12-07T08:02:25;99507.38;;;8.86;60.80
21803;BME280;18591;47.080;22.214;2022-12-07T08:04:31;99506.34;;;8.90;60.06
21803;BME280;18591;47.080;22.214;2022-12-07T08:06:34;99513.22;;;8.99;60.51
21803;BME280;18591;47.080;22.214;2022-12-07T08:08:36;99515.69;;;9.05;60.40
21803;BME280;18591;47.080;22.214;2022-12-07T08:10:38;99516.44;;;9.10;59.49
21803;BME280;18591;47.080;22.214;2022-12-07T08:12:42;99507.31;;;9.16;59.31
21803;BME280;18591;47.080;22.214;2022-12-07T08:15:03;99521.28;;;9.26;59.63
21803;BME280;18591;47.080;22.214;2022-12-07T08:17:05;99515.94;;;9.26;58.78
21803;BME280;18591;47.080;22.214;2022-12-07T08:19:11;99521.94;;;9.32;58.51
21803;BME280;18591;47.080;22.214;2022-12-07T08:21:17;99522.63;;;9.39;58.59
21803;BME280;18591;47.080;22.214;2022-12-07T08:23:19;99525.78;;;9.52;58.22
21803;BME280;18591;47.080;22.214;2022-12-07T08:25:28;99527.63;;;9.50;58.70
21803;BME280;18591;47.080;22.214;2022-12-07T08:27:31;99519.56;;;9.50;58.50
21803;BME280;18591;47.080;22.214;2022-12-07T08:29:33;99526.03;;;9.44;57.41
21803;BME280;18591;47.080;22.214;2022-12-07T08:31:36;99526.78;;;9.48;58.06
21803;BME280;18591;47.080;22.214;2022-12-07T08:33:38;99528.59;;;9.47;57.72
21803;BME280;18591;47.080;22.214;2022-12-07T08:35:41;99520.44;;;9.50;58.05
21803;BME280;18591;47.080;22.214;2022-12-07T08:37:43;99530.25;;;9.51;58.24
21803;BME280;18591;47.080;22.214;2022-12-07T08:39:46;99532.06;;;9.51;58.56
21803;BME280;18591;47.080;22.214;2022-12-07T08:41:48;99524.75;;;9.56;58.12
21803;BME280;18591;47.080;22.214;2022-12-07T08:43:51;99523.97;;;9.52;58.17
21803;BME280;18591;47.080;22.214;2022-12-07T08:49:13;99531.16;;;9.50;58.83
21803;BME280;18591;47.080;22.214;2022-12-07T08:51:17;99532.84;;;9.54;59.38
21803;BME280;18591;47.080;22.214;2022-12-07T08:53:20;99530.75;;;9.63;59.35
21803;BME280;18591;47.080;22.214;2022-12-07T08:55:23;99533.41;;;9.64;59.53
21803;BME280;18591;47.080;22.214;2022-12-07T08:57:29;99526.22;;;9.65;59.12
21803;BME280;18591;47.080;22.214;2022-12-07T08:59:36;99527.81;;;9.70;59.53
21803;BME280;18591;47.080;22.214;2022-12-07T09:01:41;99528.66;;;9.72;59.92
21803;BME280;18591;47.080;22.214;2022-12-07T09:03:46;99522.13;;;9.79;59.46
21803;BME280;18591;47.080;22.214;2022-12-07T09:05:49;99523.69;;;9.87;59.60
21803;BME280;18591;47.080;22.214;2022-12-07T09:07:59;99510.31;;;9.85;59.97
21803;BME280;18591;47.080;22.214;2022-12-07T09:10:04;99512.88;;;9.88;60.36
21803;BME280;18591;47.080;22.214;2022-12-07T09:12:06;99508.34;;;9.90;60.42
21803;BME280;18591;47.080;22.214;2022-12-07T09:14:08;99510.03;;;9.93;60.29
21803;BME280;18591;47.080;22.214;2022-12-07T09:16:11;99510.84;;;9.95;60.51
21803;BME280;18591;47.080;22.214;2022-12-07T09:18:13;99510.75;;;9.98;60.46
21803;BME280;18591;47.080;22.214;2022-12-07T09:20:15;99498.16;;;10.00;60.57
21803;BME280;18591;47.080;22.214;2022-12-07T09:22:17;99485.56;;;10.02;60.80
21803;BME280;18591;47.080;22.214;2022-12-07T09:24:19;99486.34;;;10.04;60.57
21803;BME280;18591;47.080;22.214;2022-12-07T09:26:22;99481.75;;;10.08;60.17
21803;BME280;18591;47.080;22.214;2022-12-07T09:28:24;99484.56;;;10.05;60.32
21803;BME280;18591;47.080;22.214;2022-12-07T09:30:27;99485.31;;;10.08;60.53
21803;BME280;18591;47.080;22.214;2022-12-07T09:32:29;99483.47;;;10.10;60.34
21803;BME280;18591;47.080;22.214;2022-12-07T09:34:31;99498.69;;;10.10;60.74
21803;BME280;18591;47.080;22.214;2022-12-07T09:36:34;99490.53;;;10.13;60.36
21803;BME280;18591;47.080;22.214;2022-12-07T09:38:36;99490.41;;;10.16;60.17
21803;BME280;18591;47.080;22.214;2022-12-07T09:40:38;99495.78;;;10.16;60.34
21803;BME280;18591;47.080;22.214;2022-12-07T09:42:45;99494.63;;;10.23;60.43
21803;BME280;18591;47.080;22.214;2022-12-07T09:44:50;99486.44;;;10.26;60.74
21803;BME280;18591;47.080;22.214;2022-12-07T09:46:53;99486.34;;;10.29;60.61
21803;BME280;18591;47.080;22.214;2022-12-07T09:48:55;99487.06;;;10.34;60.29
21803;BME280;18591;47.080;22.214;2022-12-07T09:51:00;99483.38;;;10.37;59.97
21803;BME280;18591;47.080;22.214;2022-12-07T09:53:12;99483.31;;;10.38;59.72
21803;BME280;18591;47.080;22.214;2022-12-07T09:55:21;99477.88;;;10.40;60.08
21803;BME280;18591;47.080;22.214;2022-12-07T09:57:30;99481.50;;;10.39;60.12
21803;BME280;18591;47.080;22.214;2022-12-07T09:59:33;99477.84;;;10.41;60.44
21803;BME280;18591;47.080;22.214;2022-12-07T10:01:38;99480.22;;;10.49;60.60
21803;BME280;18591;47.080;22.214;2022-12-07T10:06:23;99479.78;;;10.60;58.70
21803;BME280;18591;47.080;22.214;2022-12-07T10:08:25;99479.63;;;10.64;58.24
21803;BME280;18591;47.080;22.214;2022-12-07T10:10:33;99475.41;;;10.57;56.52
21803;BME280;18591;47.080;22.214;2022-12-07T10:15:03;99488.69;;;10.62;57.73
21803;BME280;18591;47.080;22.214;2022-12-07T10:19:32;99485.91;;;10.63;57.35
21803;BME280;18591;47.080;22.214;2022-12-07T10:21:37;99482.22;;;10.66;57.88
21803;BME280;18591;47.080;22.214;2022-12-07T10:24:08;99488.59;;;10.63;57.02
21803;BME280;18591;47.080;22.214;2022-12-07T10:26:40;99489.28;;;10.68;57.12
21803;BME280;18591;47.080;22.214;2022-12-07T10:28:49;99483.88;;;10.70;58.11
21803;BME280;18591;47.080;22.214;2022-12-07T10:31:15;99483.88;;;10.70;58.08
21803;BME280;18591;47.080;22.214;2022-12-07T10:33:48;99481.44;;;10.64;58.33
21803;BME280;18591;47.080;22.214;2022-12-07T10:35:51;99484.75;;;10.71;58.28
21803;BME280;18591;47.080;22.214;2022-12-07T10:37:56;99474.88;;;10.71;57.80
21803;BME280;18591;47.080;22.214;2022-12-07T10:39:59;99474.94;;;10.70;58.05
21803;BME280;18591;47.080;22.214;2022-12-07T10:42:03;99469.44;;;10.73;57.77
21803;BME280;18591;47.080;22.214;2022-12-07T10:44:21;99482.22;;;10.66;57.74
21803;BME280;18591;47.080;22.214;2022-12-07T10:51:26;99469.00;;;10.83;57.84
21803;BME280;18591;47.080;22.214;2022-12-07T10:58:27;99465.50;;;10.81;56.13
21803;BME280;18591;47.080;22.214;2022-12-07T11:00:44;99464.50;;;10.84;56.68
21803;BME280;18591;47.080;22.214;2022-12-07T11:05:45;99461.75;;;10.85;56.18
21803;BME280;18591;47.080;22.214;2022-12-07T11:23:56;99448.06;;;11.14;54.63
21803;BME280;18591;47.080;22.214;2022-12-07T11:34:14;99435.56;;;11.13;55.21
21803;BME280;18591;47.080;22.214;2022-12-07T11:38:51;99422.84;;;11.16;54.16
21803;BME280;18591;47.080;22.214;2022-12-07T11:40:59;99425.41;;;11.19;55.16
21803;BME280;18591;47.080;22.214;2022-12-07T11:43:25;99421.81;;;11.20;54.23
21803;BME280;18591;47.080;22.214;2022-12-07T11:45:35;99426.91;;;11.26;54.50
21803;BME280;18591;47.080;22.214;2022-12-07T11:47:51;99421.38;;;11.29;54.35
21803;BME280;18591;47.080;22.214;2022-12-07T11:51:58;99422.72;;;11.19;53.81
21803;BME280;18591;47.080;22.214;2022-12-07T11:54:12;99425.88;;;11.08;52.89
21803;BME280;18591;47.080;22.214;2022-12-07T11:56:19;99414.84;;;11.15;54.19
21803;BME280;18591;47.080;22.214;2022-12-07T11:58:39;99406.72;;;11.16;54.46
21803;BME280;18591;47.080;22.214;2022-12-07T12:00:44;99409.13;;;11.22;54.76
21803;BME280;18591;47.080;22.214;2022-12-07T12:03:02;99404.78;;;11.20;53.09
21803;BME280;18591;47.080;22.214;2022-12-07T12:05:16;99409.97;;;11.24;54.49
21803;BME280;18591;47.080;22.214;2022-12-07T12:07:23;99403.66;;;11.25;53.30
21803;BME280;18591;47.080;22.214;2022-12-07T12:10:02;99399.06;;;11.27;52.17
21803;BME280;18591;47.080;22.214;2022-12-07T12:12:37;99396.38;;;11.27;51.68
21803;BME280;18591;47.080;22.214;2022-12-07T12:21:37;99383.16;;;11.23;52.64
21803;BME280;18591;47.080;22.214;2022-12-07T12:23:50;99387.63;;;11.22;51.69
21803;BME280;18591;47.080;22.214;2022-12-07T12:25:58;99379.69;;;11.19;51.76
21803;BME280;18591;47.080;22.214;2022-12-07T12:28:02;99387.84;;;11.18;52.15
21803;BME280;18591;47.080;22.214;2022-12-07T12:30:23;99387.03;;;11.16;51.74
21803;BME280;18591;47.080;22.214;2022-12-07T12:32:40;99389.09;;;11.09;51.01
21803;BME280;18591;47.080;22.214;2022-12-07T12:35:00;99388.97;;;11.12;50.88
21803;BME280;18591;47.080;22.214;2022-12-07T12:39:35;99386.41;;;11.09;52.04
21803;BME280;18591;47.080;22.214;2022-12-07T12:43:45;99382.31;;;11.00;51.57
21803;BME280;18591;47.080;22.214;2022-12-07T12:48:36;99385.38;;;10.91;51.49
21803;BME280;18591;47.080;22.214;2022-12-07T12:50:39;99379.69;;;10.99;52.21
21803;BME280;18591;47.080;22.214;2022-12-07T12:55:01;99382.22;;;11.02;50.79
21803;BME280;18591;47.080;22.214;2022-12-07T13:01:38;99385.53;;;11.08;50.86
21803;BME280;18591;47.080;22.214;2022-12-07T13:03:52;99375.97;;;11.01;51.07
21803;BME280;18591;47.080;22.214;2022-12-07T13:06:29;99377.84;;;10.99;51.14
21803;BME280;18591;47.080;22.214;2022-12-07T13:08:35;99383.00;;;11.05;51.94